createdAt,value
2022-07-29T00:00:29.381Z,3.22
2022-07-29T00:02:56.221Z,3.40
2022-07-29T00:05:23.082Z,2.03
2022-07-29T00:07:49.883Z,3.25
2022-07-29T00:10:16.835Z,2.20
2022-07-29T00:12:43.626Z,2.03
2022-07-29T00:15:11.197Z,2.25
2022-07-29T00:17:38.620Z,2.97
2022-07-29T00:20:06.565Z,2.30
2022-07-29T00:22:33.545Z,2.35
2022-07-29T00:25:00.289Z,3.45
2022-07-29T00:27:27.011Z,2.85
2022-07-29T00:29:53.870Z,5.60
2022-07-29T00:32:20.699Z,3.97
2022-07-29T00:35:06.225Z,3.35
2022-07-29T00:37:33.039Z,2.45
2022-07-29T00:39:59.888Z,2.75
2022-07-29T00:42:26.703Z,4.82
2022-07-29T00:44:53.427Z,3.28
2022-07-29T00:47:20.208Z,4.10
2022-07-29T00:49:47.110Z,4.95
2022-07-29T00:52:16.948Z,4.47
2022-07-29T00:54:45.012Z,4.03
2022-07-29T00:57:12.851Z,3.05
2022-07-29T00:59:40.315Z,3.78
2022-07-29T01:02:07.279Z,3.10
2022-07-29T01:04:34.748Z,5.75
2022-07-29T01:07:03.115Z,3.00
2022-07-29T01:09:40.810Z,2.50
2022-07-29T01:12:16.354Z,2.20
2022-07-29T01:14:44.234Z,3.03
2022-07-29T01:17:29.504Z,4.35
2022-07-29T01:20:19.890Z,3.63
2022-07-29T01:23:07.634Z,1.98
2022-07-29T01:26:04.886Z,4.43
2022-07-29T01:29:08.230Z,3.13
2022-07-29T01:31:58.804Z,6.00
2022-07-29T01:34:40.105Z,2.80
2022-07-29T01:37:21.322Z,2.42
2022-07-29T01:39:52.467Z,4.43
2022-07-29T01:42:27.993Z,4.20
2022-07-29T01:45:00.666Z,3.38
2022-07-29T01:47:46.294Z,3.80
2022-07-29T01:50:17.085Z,4.63
2022-07-29T01:52:50.681Z,4.28
2022-07-29T01:55:21.318Z,2.60
2022-07-29T01:57:49.454Z,4.95
2022-07-29T02:00:17.371Z,2.97
2022-07-29T02:02:46.719Z,3.00
2022-07-29T02:05:17.170Z,3.05
2022-07-29T02:07:47.483Z,3.25
2022-07-29T02:10:16.001Z,1.80
2022-07-29T02:12:46.637Z,2.33
2022-07-29T02:15:19.050Z,3.58
2022-07-29T02:17:52.668Z,2.53
2022-07-29T02:20:20.273Z,3.88
2022-07-29T02:22:49.871Z,2.63
2022-07-29T02:25:18.104Z,3.00
2022-07-29T02:27:45.967Z,2.40
2022-07-29T02:30:13.632Z,3.80
2022-07-29T02:32:42.563Z,5.10
2022-07-29T02:35:10.819Z,5.32
2022-07-29T02:37:39.017Z,3.65
2022-07-29T02:40:09.835Z,1.98
2022-07-29T02:42:38.954Z,3.95
2022-07-29T02:45:08.238Z,3.10
2022-07-29T02:47:43.305Z,4.85
2022-07-29T02:50:27.381Z,3.67
2022-07-29T02:53:30.864Z,5.13
2022-07-29T02:56:00.594Z,3.08
2022-07-29T02:58:52.303Z,3.20
2022-07-29T03:01:25.033Z,4.72
2022-07-29T03:03:54.535Z,5.90
2022-07-29T03:06:28.480Z,3.70
2022-07-29T03:09:12.294Z,3.78
2022-07-29T03:11:46.268Z,4.82
2022-07-29T03:14:19.299Z,3.70
2022-07-29T03:16:47.713Z,5.47
2022-07-29T03:19:15.696Z,4.25
2022-07-29T03:21:42.787Z,3.60
2022-07-29T03:24:10.792Z,4.70
2022-07-29T03:26:38.344Z,5.45
2022-07-29T03:29:05.503Z,4.18
2022-07-29T03:31:33.491Z,3.55
2022-07-29T03:34:00.554Z,3.28
2022-07-29T03:36:27.488Z,5.97
2022-07-29T03:38:54.446Z,3.92
2022-07-29T03:41:23.891Z,5.97
2022-07-29T03:43:51.823Z,4.18
2022-07-29T03:46:21.574Z,4.40
2022-07-29T03:48:51.731Z,8.32
2022-07-29T03:51:18.717Z,4.60
2022-07-29T03:54:00.538Z,5.20
2022-07-29T03:56:29.213Z,4.15
2022-07-29T03:58:56.594Z,3.65
2022-07-29T04:01:25.055Z,4.88
2022-07-29T04:03:52.445Z,4.78
2022-07-29T04:06:19.230Z,3.78
2022-07-29T04:08:46.180Z,4.57
2022-07-29T04:11:13.603Z,6.05
2022-07-29T04:13:40.394Z,4.70
2022-07-29T04:16:07.279Z,4.72
2022-07-29T04:18:34.238Z,3.83
2022-07-29T04:21:01.869Z,4.03
2022-07-29T04:23:33.439Z,3.65
2022-07-29T04:26:01.994Z,4.13
2022-07-29T04:28:29.125Z,6.10
2022-07-29T04:30:55.929Z,4.07
2022-07-29T04:33:22.674Z,3.75
2022-07-29T04:35:52.554Z,3.47
2022-07-29T04:38:23.135Z,7.50
2022-07-29T04:40:50.113Z,4.38
2022-07-29T04:43:22.383Z,3.38
2022-07-29T04:45:50.259Z,5.10
2022-07-29T04:48:17.529Z,3.92
2022-07-29T04:50:45.242Z,4.82
2022-07-29T04:53:12.063Z,6.40
2022-07-29T04:55:39.208Z,4.82
2022-07-29T04:58:06.075Z,5.15
2022-07-29T05:00:33.446Z,5.53
2022-07-29T05:03:00.846Z,2.95
2022-07-29T05:05:27.760Z,3.80
2022-07-29T05:07:54.549Z,3.40
2022-07-29T05:10:21.572Z,5.05
2022-07-29T05:12:48.650Z,7.75
2022-07-29T05:15:15.518Z,4.15
2022-07-29T05:17:42.230Z,4.78
2022-07-29T05:20:09.843Z,5.63
2022-07-29T05:22:36.542Z,7.40
2022-07-29T05:25:08.828Z,5.57
2022-07-29T05:27:37.808Z,3.92
2022-07-29T05:30:05.093Z,6.63
2022-07-29T05:32:31.802Z,4.22
2022-07-29T05:34:58.530Z,4.88
2022-07-29T05:37:25.629Z,4.90
2022-07-29T05:39:57.305Z,3.33
2022-07-29T05:42:26.572Z,3.92
2022-07-29T05:44:53.802Z,4.93
2022-07-29T05:47:20.564Z,4.88
2022-07-29T05:49:47.360Z,5.10
2022-07-29T05:52:15.400Z,4.30
2022-07-29T05:54:42.251Z,5.35
2022-07-29T05:57:09.243Z,5.10
2022-07-29T05:59:39.752Z,5.93
2022-07-29T06:02:06.648Z,3.75
2022-07-29T06:04:34.562Z,3.65
2022-07-29T06:07:02.603Z,5.45
2022-07-29T06:09:29.579Z,4.47
2022-07-29T06:11:56.322Z,8.00
2022-07-29T06:14:23.060Z,6.03
2022-07-29T06:16:49.885Z,3.63
2022-07-29T06:19:16.938Z,5.65
2022-07-29T06:21:50.849Z,5.32
2022-07-29T06:24:18.973Z,7.60
2022-07-29T06:26:47.423Z,4.60
2022-07-29T06:29:14.169Z,3.80
2022-07-29T06:31:41.080Z,4.50
2022-07-29T06:34:08.465Z,4.03
2022-07-29T06:36:37.888Z,4.07
2022-07-29T06:39:07.142Z,5.93
2022-07-29T06:41:34.952Z,5.20
2022-07-29T06:44:01.707Z,5.05
2022-07-29T06:46:28.858Z,4.05
2022-07-29T06:48:55.831Z,6.07
2022-07-29T06:51:23.991Z,4.75
2022-07-29T06:53:58.152Z,4.60
2022-07-29T06:56:26.199Z,3.00
2022-07-29T06:58:53.065Z,3.63
2022-07-29T07:01:20.786Z,3.17
2022-07-29T07:03:48.761Z,4.25
2022-07-29T07:06:15.618Z,5.88
2022-07-29T07:08:42.324Z,3.55
2022-07-29T07:11:09.940Z,4.68
2022-07-29T07:13:37.030Z,3.72
2022-07-29T07:16:04.732Z,2.78
2022-07-29T07:18:31.659Z,4.05
2022-07-29T07:20:58.822Z,4.20
2022-07-29T07:23:25.877Z,2.95
2022-07-29T07:25:52.762Z,5.47
2022-07-29T07:28:24.701Z,4.60
2022-07-29T07:31:00.170Z,5.75
2022-07-29T07:33:26.900Z,4.88
2022-07-29T07:35:53.645Z,5.32
2022-07-29T07:38:20.458Z,5.25
2022-07-29T07:40:47.428Z,3.78
2022-07-29T07:43:14.169Z,3.45
2022-07-29T07:45:41.148Z,5.95
2022-07-29T07:48:07.977Z,6.82
2022-07-29T07:50:34.750Z,4.93
2022-07-29T07:53:03.097Z,3.00
2022-07-29T07:55:42.364Z,4.32
2022-07-29T07:58:17.053Z,6.57
2022-07-29T08:00:44.542Z,6.63
2022-07-29T08:03:16.805Z,4.25
2022-07-29T08:05:44.388Z,5.13
2022-07-29T08:08:11.250Z,5.10
2022-07-29T08:10:53.080Z,4.97
2022-07-29T08:13:22.048Z,3.60
2022-07-29T08:15:58.322Z,4.07
2022-07-29T08:18:25.964Z,5.47
2022-07-29T08:20:52.698Z,4.82
2022-07-29T08:23:20.121Z,3.28
2022-07-29T08:25:46.917Z,4.22
2022-07-29T08:28:18.044Z,3.28
2022-07-29T08:30:44.991Z,4.50
2022-07-29T08:33:11.912Z,3.88
2022-07-29T08:35:40.285Z,6.30
2022-07-29T08:38:07.272Z,3.72
2022-07-29T08:40:34.093Z,4.93
2022-07-29T08:43:09.331Z,2.70
2022-07-29T08:45:47.742Z,4.97
2022-07-29T08:48:17.200Z,5.78
2022-07-29T08:50:46.435Z,4.47
2022-07-29T08:53:16.247Z,4.45
2022-07-29T08:55:46.017Z,2.77
2022-07-29T08:58:15.714Z,5.55
2022-07-29T09:00:47.137Z,4.38
2022-07-29T09:03:21.013Z,3.47
2022-07-29T09:05:48.940Z,5.95
2022-07-29T09:08:17.077Z,4.63
2022-07-29T09:10:44.977Z,5.22
2022-07-29T09:13:11.792Z,4.05
2022-07-29T09:15:38.861Z,8.95
2022-07-29T09:18:05.798Z,7.32
2022-07-29T09:20:51.430Z,7.33
2022-07-29T09:23:24.222Z,3.28
2022-07-29T09:25:51.428Z,4.63
2022-07-29T09:28:19.078Z,4.97
2022-07-29T09:30:56.490Z,7.40
2022-07-29T09:33:24.619Z,4.63
2022-07-29T09:36:10.744Z,5.65
2022-07-29T09:38:38.685Z,8.90
2022-07-29T09:41:07.238Z,5.72
2022-07-29T09:43:35.125Z,4.38
2022-07-29T09:46:15.022Z,6.03
2022-07-29T09:48:41.944Z,3.70
2022-07-29T09:51:27.070Z,6.40
2022-07-29T09:54:24.436Z,5.25
2022-07-29T09:56:51.482Z,5.03
2022-07-29T09:59:18.372Z,6.27
2022-07-29T10:01:45.155Z,6.65
2022-07-29T10:04:12.110Z,9.40
2022-07-29T10:07:03.820Z,4.65
2022-07-29T10:09:33.025Z,4.85
2022-07-29T10:12:11.987Z,6.37
2022-07-29T10:14:43.097Z,7.68
2022-07-29T10:17:11.539Z,5.40
2022-07-29T10:19:43.455Z,8.40
2022-07-29T10:22:11.432Z,4.40
2022-07-29T10:24:40.053Z,5.43
2022-07-29T10:27:09.310Z,5.57
2022-07-29T10:29:36.807Z,4.55
2022-07-29T10:32:21.739Z,5.53
2022-07-29T10:35:10.212Z,6.70
2022-07-29T10:37:55.053Z,5.40
2022-07-29T10:41:10.941Z,7.03
2022-07-29T10:43:42.865Z,5.20
2022-07-29T10:46:11.399Z,6.45
2022-07-29T10:49:15.941Z,6.88
2022-07-29T10:52:00.987Z,4.67
2022-07-29T10:54:48.606Z,5.35
2022-07-29T10:57:17.332Z,5.60
2022-07-29T10:59:46.256Z,5.15
2022-07-29T11:02:41.462Z,4.03
2022-07-29T11:05:09.881Z,5.83
2022-07-29T11:07:45.993Z,5.70
2022-07-29T11:10:13.869Z,4.32
2022-07-29T11:12:44.058Z,6.82
2022-07-29T11:15:19.899Z,3.78
2022-07-29T11:17:59.529Z,7.55
2022-07-29T11:20:45.881Z,7.97
2022-07-29T11:23:44.637Z,4.97
2022-07-29T11:26:18.680Z,5.13
2022-07-29T11:28:55.577Z,8.60
2022-07-29T11:31:36.619Z,3.00
2022-07-29T11:34:33.192Z,3.30
2022-07-29T11:37:10.781Z,5.93
2022-07-29T11:39:54.360Z,4.90
2022-07-29T11:42:32.577Z,5.57
2022-07-29T11:45:08.942Z,6.87
2022-07-29T11:47:52.619Z,3.90
2022-07-29T11:50:33.745Z,6.63
2022-07-29T11:53:08.813Z,7.22
2022-07-29T11:55:50.783Z,5.20
2022-07-29T11:58:25.177Z,8.37
2022-07-29T12:00:55.591Z,4.70
2022-07-29T12:03:40.272Z,4.03
2022-07-29T12:06:17.343Z,7.18
2022-07-29T12:08:45.121Z,8.63
2022-07-29T12:11:20.958Z,4.43
2022-07-29T12:13:49.367Z,6.78
2022-07-29T12:16:25.471Z,8.73
2022-07-29T12:18:57.773Z,7.53
2022-07-29T12:21:25.753Z,5.22
2022-07-29T12:23:57.677Z,5.90
2022-07-29T12:26:28.789Z,5.63
2022-07-29T12:28:55.807Z,8.10
2022-07-29T12:31:43.217Z,4.22
2022-07-29T12:34:14.758Z,3.83
2022-07-29T12:36:45.934Z,6.53
2022-07-29T12:39:13.437Z,5.70
2022-07-29T12:41:40.318Z,4.93
2022-07-29T12:44:07.077Z,4.63
2022-07-29T12:46:34.018Z,4.93
2022-07-29T12:49:00.868Z,7.53
2022-07-29T12:51:40.216Z,5.00
2022-07-29T12:54:14.882Z,9.90
2022-07-29T12:56:44.509Z,5.95
2022-07-29T12:59:21.188Z,4.93
2022-07-29T13:01:50.460Z,4.33
2022-07-29T13:04:34.385Z,3.40
2022-07-29T13:07:05.158Z,6.68
2022-07-29T13:09:43.276Z,4.35
2022-07-29T13:12:13.502Z,4.43
2022-07-29T13:14:46.492Z,4.73
2022-07-29T13:17:16.751Z,6.18
2022-07-29T13:19:46.429Z,6.13
2022-07-29T13:22:22.374Z,6.65
2022-07-29T13:24:55.598Z,4.63
2022-07-29T13:27:28.587Z,6.23
2022-07-29T13:29:58.566Z,5.05
2022-07-29T13:32:27.901Z,5.25
2022-07-29T13:34:57.515Z,7.03
2022-07-29T13:37:24.425Z,4.85
2022-07-29T13:39:52.941Z,6.17
2022-07-29T13:42:20.578Z,6.32
2022-07-29T13:44:49.578Z,5.95
2022-07-29T13:47:17.249Z,6.07
2022-07-29T13:49:44.063Z,5.32
2022-07-29T13:52:10.924Z,3.60
2022-07-29T13:54:42.566Z,6.63
2022-07-29T13:57:11.722Z,5.18
2022-07-29T13:59:40.196Z,4.43
2022-07-29T14:02:07.584Z,6.68
2022-07-29T14:04:34.594Z,5.83
2022-07-29T14:07:03.642Z,4.32
2022-07-29T14:09:31.090Z,4.47
2022-07-29T14:12:08.967Z,4.03
2022-07-29T14:14:37.631Z,5.90
2022-07-29T14:17:07.238Z,6.77
2022-07-29T14:19:36.755Z,7.03
2022-07-29T14:22:05.340Z,7.03
2022-07-29T14:24:32.421Z,6.28
2022-07-29T14:27:02.747Z,5.38
2022-07-29T14:29:37.737Z,7.03
2022-07-29T14:32:08.117Z,5.78
2022-07-29T14:34:36.627Z,5.68
2022-07-29T14:37:06.444Z,5.75
2022-07-29T14:39:36.927Z,5.55
2022-07-29T14:42:06.781Z,7.73
2022-07-29T14:44:36.065Z,5.05
2022-07-29T14:47:07.695Z,4.65
2022-07-29T14:49:36.104Z,6.22
2022-07-29T14:52:03.532Z,6.43
2022-07-29T14:54:30.249Z,2.90
2022-07-29T14:56:58.432Z,6.45
2022-07-29T14:59:26.127Z,6.38
2022-07-29T15:01:53.197Z,5.03
2022-07-29T15:04:20.029Z,3.28
2022-07-29T15:06:49.067Z,7.00
2022-07-29T15:09:15.880Z,9.73
2022-07-29T15:11:42.694Z,5.88
2022-07-29T15:14:09.888Z,6.07
2022-07-29T15:16:44.064Z,3.45
2022-07-29T15:19:14.923Z,10.53
2022-07-29T15:21:47.994Z,4.53
2022-07-29T15:24:15.572Z,4.50
2022-07-29T15:26:43.375Z,5.85
2022-07-29T15:29:10.401Z,6.38
2022-07-29T15:31:37.440Z,4.07
2022-07-29T15:34:07.241Z,5.65
2022-07-29T15:39:25.364Z,4.93
2022-07-29T15:41:53.923Z,5.28
2022-07-29T15:44:21.454Z,3.37
2022-07-29T15:47:04.817Z,4.13
2022-07-29T15:49:47.361Z,6.07
2022-07-29T15:52:25.951Z,4.55
2022-07-29T15:54:55.379Z,3.80
2022-07-29T15:57:22.809Z,2.97
2022-07-29T15:59:55.397Z,4.32
2022-07-29T16:02:22.654Z,5.63
2022-07-29T16:04:50.286Z,4.20
2022-07-29T16:07:17.413Z,5.38
2022-07-29T16:09:49.392Z,4.33
2022-07-29T16:12:21.310Z,3.47
2022-07-29T16:14:49.565Z,3.90
2022-07-29T16:17:16.882Z,5.28
2022-07-29T16:19:44.475Z,6.00
2022-07-29T16:22:12.030Z,4.93
2022-07-29T16:24:39.178Z,4.20
2022-07-29T16:27:06.598Z,6.40
2022-07-29T16:29:33.444Z,6.35
2022-07-29T16:32:01.327Z,5.45
2022-07-29T16:34:28.405Z,5.30
2022-07-29T16:36:55.110Z,6.00
2022-07-29T16:39:21.889Z,4.05
2022-07-29T16:41:48.656Z,4.63
2022-07-29T16:44:15.958Z,3.80
2022-07-29T16:46:45.207Z,3.53
2022-07-29T16:49:12.271Z,5.90
2022-07-29T16:51:45.161Z,4.60
2022-07-29T16:54:12.054Z,4.18
2022-07-29T16:56:39.161Z,3.22
2022-07-29T16:59:05.984Z,5.70
2022-07-29T17:01:32.993Z,4.10
2022-07-29T17:04:06.782Z,3.30
2022-07-29T17:06:35.824Z,4.85
2022-07-29T17:09:06.797Z,3.85
2022-07-29T17:11:53.593Z,4.37
2022-07-29T17:14:26.355Z,4.50
2022-07-29T17:17:00.627Z,3.97
2022-07-29T17:19:33.941Z,4.40
2022-07-29T17:22:18.675Z,2.83
2022-07-29T17:24:46.888Z,5.33
2022-07-29T17:27:13.864Z,4.15
2022-07-29T17:29:41.787Z,6.53
2022-07-29T17:32:11.121Z,4.75
2022-07-29T17:34:40.193Z,5.60
2022-07-29T17:37:12.156Z,4.37
2022-07-29T17:39:41.197Z,3.83
2022-07-29T17:42:11.495Z,5.38
2022-07-29T17:44:39.046Z,5.57
2022-07-29T17:47:10.644Z,3.47
2022-07-29T17:49:43.124Z,5.10
2022-07-29T17:52:10.231Z,5.43
2022-07-29T17:54:37.075Z,5.47
2022-07-29T17:57:03.955Z,6.68
2022-07-29T17:59:31.716Z,4.60
2022-07-29T18:01:58.565Z,6.27
2022-07-29T18:04:25.428Z,5.00
2022-07-29T18:06:52.189Z,3.97
2022-07-29T18:09:25.530Z,3.00
2022-07-29T18:11:52.712Z,5.40
2022-07-29T18:14:19.604Z,5.27
2022-07-29T18:16:46.553Z,3.35
2022-07-29T18:19:13.558Z,4.32
2022-07-29T18:21:43.568Z,6.18
2022-07-29T18:24:18.758Z,7.05
2022-07-29T18:26:46.467Z,4.43
2022-07-29T18:29:13.340Z,3.72
2022-07-29T18:31:41.274Z,6.32
2022-07-29T18:34:08.560Z,6.70
2022-07-29T18:36:35.328Z,4.60
2022-07-29T18:39:02.105Z,3.83
2022-07-29T18:41:29.165Z,5.90
2022-07-29T18:43:55.877Z,5.30
2022-07-29T18:46:22.741Z,7.25
2022-07-29T18:48:49.912Z,6.50
2022-07-29T18:51:17.692Z,3.00
2022-07-29T18:53:46.169Z,5.40
2022-07-29T18:56:13.040Z,4.85
2022-07-29T18:58:40.405Z,4.75
2022-07-29T19:01:07.187Z,6.53
2022-07-29T19:03:34.078Z,5.50
2022-07-29T19:06:01.131Z,5.53
2022-07-29T19:08:27.986Z,4.70
2022-07-29T19:10:54.771Z,6.40
2022-07-29T19:13:21.694Z,9.27
2022-07-29T19:15:48.531Z,11.65
2022-07-29T19:18:15.352Z,11.02
2022-07-29T19:20:47.461Z,7.85
2022-07-29T19:23:14.351Z,9.18
2022-07-29T19:25:52.997Z,10.00
2022-07-29T19:28:21.514Z,6.53
2022-07-29T19:30:48.377Z,7.80
2022-07-29T19:33:17.511Z,6.95
2022-07-29T19:35:45.372Z,6.47
2022-07-29T19:38:12.297Z,9.05
2022-07-29T19:40:42.592Z,6.75
2022-07-29T19:43:51.443Z,7.70
2022-07-29T19:45:56.970Z,10.07
2022-07-29T19:48:23.749Z,8.68
2022-07-29T19:50:50.557Z,9.57
2022-07-29T19:53:17.389Z,9.32
2022-07-29T19:55:44.228Z,10.73
2022-07-29T19:58:11.121Z,8.95
2022-07-29T20:00:37.825Z,7.07
2022-07-29T20:03:06.999Z,11.82
2022-07-29T20:05:34.906Z,8.70
2022-07-29T20:08:13.910Z,9.63
2022-07-29T20:10:40.777Z,8.43
2022-07-29T20:13:07.517Z,7.22
2022-07-29T20:15:34.344Z,8.05
2022-07-29T20:18:02.181Z,9.90
2022-07-29T20:20:31.933Z,10.55
2022-07-29T20:22:59.271Z,9.25
2022-07-29T20:25:28.250Z,13.23
2022-07-29T20:27:55.127Z,11.32
2022-07-29T20:30:22.702Z,8.75
2022-07-29T20:32:50.600Z,11.63
2022-07-29T20:35:17.444Z,8.27
2022-07-29T20:37:55.875Z,12.05
2022-07-29T20:40:26.930Z,11.73
2022-07-29T20:42:54.283Z,12.63
2022-07-29T20:45:21.771Z,17.08
2022-07-29T20:47:48.530Z,14.23
2022-07-29T20:50:15.622Z,10.77
2022-07-29T20:52:44.094Z,13.57
2022-07-29T20:55:11.394Z,11.65
2022-07-29T20:57:40.021Z,14.98
2022-07-29T21:00:08.135Z,13.30
2022-07-29T21:02:36.649Z,10.38
2022-07-29T21:05:03.801Z,15.07
2022-07-29T21:07:30.583Z,14.18
2022-07-29T21:09:57.570Z,13.25
2022-07-29T21:12:24.424Z,15.20
2022-07-29T21:14:51.955Z,15.60
2022-07-29T21:17:22.639Z,17.27
2022-07-29T21:19:52.411Z,12.45
2022-07-29T21:22:21.881Z,11.00
2022-07-29T21:24:49.344Z,13.15
2022-07-29T21:27:35.056Z,13.90
2022-07-29T21:30:09.849Z,12.27
2022-07-29T21:32:36.941Z,14.50
2022-07-29T21:35:18.356Z,14.35
2022-07-29T21:37:51.373Z,13.93
2022-07-29T21:40:18.278Z,11.57
2022-07-29T21:42:45.533Z,14.18
2022-07-29T21:45:15.679Z,15.27
2022-07-29T21:47:42.373Z,14.43
2022-07-29T21:50:09.941Z,15.55
2022-07-29T21:52:40.302Z,10.98
2022-07-29T21:55:07.645Z,12.52
2022-07-29T21:57:37.569Z,17.40
2022-07-29T22:00:06.251Z,13.25
2022-07-29T22:02:32.980Z,15.90
2022-07-29T22:04:59.689Z,13.60
2022-07-29T22:07:54.585Z,12.95
2022-07-29T22:10:13.333Z,12.68
2022-07-29T22:12:40.357Z,12.25
2022-07-29T22:15:07.688Z,14.30
2022-07-29T22:17:34.527Z,15.68
2022-07-29T22:20:01.498Z,14.30
2022-07-29T22:22:28.556Z,15.10
2022-07-29T22:24:55.773Z,12.55
2022-07-29T22:27:22.767Z,15.77
2022-07-29T22:29:49.493Z,16.02
2022-07-29T22:32:23.188Z,15.88
2022-07-29T22:34:49.975Z,13.40
2022-07-29T22:37:17.097Z,14.20
2022-07-29T22:39:43.957Z,10.95
2022-07-29T22:42:10.685Z,12.75
2022-07-29T22:44:37.756Z,11.85
2022-07-29T22:47:04.938Z,12.68
2022-07-29T22:49:31.879Z,13.82
2022-07-29T22:51:59.020Z,14.27
2022-07-29T22:54:26.048Z,13.85
2022-07-29T22:56:52.920Z,13.93
2022-07-29T22:59:19.777Z,14.20
2022-07-29T23:01:46.585Z,14.95
2022-07-29T23:04:13.448Z,13.90
2022-07-29T23:06:40.417Z,18.00
2022-07-29T23:09:07.154Z,12.48
2022-07-29T23:11:33.865Z,11.50
2022-07-29T23:14:00.609Z,14.07
2022-07-29T23:16:27.446Z,17.30
2022-07-29T23:18:54.835Z,14.32
2022-07-29T23:21:21.814Z,15.23
2022-07-29T23:23:49.022Z,14.48
2022-07-29T23:26:16.926Z,16.73
2022-07-29T23:28:45.393Z,14.15
2022-07-29T23:31:13.555Z,13.77
2022-07-29T23:33:41.419Z,15.40
2022-07-29T23:36:08.530Z,14.60
2022-07-29T23:38:35.362Z,13.52
2022-07-29T23:41:03.606Z,19.40
2022-07-29T23:43:30.317Z,14.73
2022-07-29T23:45:58.234Z,14.93
2022-07-29T23:48:25.111Z,15.20
2022-07-29T23:50:51.833Z,18.45
2022-07-29T23:53:18.725Z,19.38
2022-07-29T23:55:45.515Z,14.25
2022-07-29T23:58:12.280Z,17.63
